Potter, Wisconsin
Current Conditions -  °F | °C
As of 12:33 AM on Thursday 27 Nov 2014 (Local Time) from KMTW Reporting Station
Light Snow Light Snow  
Wind Chill: 13°   Ceiling: 2600
Heat Index: 21°   Visibility: 4mi
Dew Point: 19°   Wind: 7mph
Humidity: 93%   Direction: 290°WNW
Pressure: 30.2"   Gusts: NA
Location:  44.12°N, 88.1°W
Report Text: KMTW 270633Z AUTO 29006KT 4SM -SN BR SCT022 BKN026 OVC038 M06/M07 A3020 RMK AO2 P0000 FZRANO
Loading
Personal Weather Stations






























Interactive Weather Map New forecast layout! Learn more

10-Day Weather Forecast

Advertisements
Track Severe Weather on mobile